メインページ
METAR-TAF:

METAR-TAF

空港 :

東京 / 羽田国際空港, 日本

東京国際空港

緯度: 35-33N, 経度: 139-47E, 海抜: 5m

現時点の気象観測

当レポートは24分前の17:00(UTC)に作成
北/北東の風 8kt
気温 8°C
湿度 61%
気圧 1019 hPa
視程10km以上
高度3000ftの雲はほとんどない
高度4000ftの千切れ雲あり
小雨

METAR: RJTT 251700Z 02008KT 9999 -RA FEW030 BKN040 08/01 Q1019 NOSIG RMK 1CU030 7SC040 A3011

時間: 02:24 (17:24 UTC)

予報

当レポートは6時間18分前の11:06(UTC)に作成
予報は25日の 12時(UTC)から 26日の 18時(UTC)まで有効
東/南東の風 10kt
視程10km以上
高度2500ftの雲はほとんどない
高度4000ftの千切れ雲あり
25日の 16時(UTC)から 25日の 18時(UTC)まで徐々に
の風 10kt
25日の 18時(UTC)から 26日の 03時(UTC)まで一時的に
視程: 4000m
高度500ftの雲はほとんどない
高度800ftの千切れ雲あり
弱いにわか雨, 靄
26日の 03時(UTC)から 26日の 06時(UTC)まで徐々に
の風 12kt
26日の 09時(UTC)から 26日の 12時(UTC)まで徐々に
の風 16kt
26日の 09時(UTC)から 26日の 18時(UTC)まで一時的に
視程: 4000m
高度500ftの雲はほとんどない
高度800ftの千切れ雲あり
弱いにわか雨, 靄

TAF: RJTT 251106Z 2512/2618 11010KT 9999 FEW025 BKN040 BECMG 2516/2518 01010KT TEMPO 2518/2603 4000 -SHRA BR FEW005 BKN008 BECMG 2603/2606 09012KT BECMG 2609/2612 35016KT TEMPO 2609/2618 4000 -SHRA BR FEW005 BKN008

4,000以上の空港の気象観測と天気予報(METAR報とTAF報)

利用可能な観測所は地図上に黄色い丸と赤い丸で示す。

丸の上にカーソルを重ねると観測所名を参照できる。

次にクリックすると気象観測と天気予報を参照できる。

マップの切り替え:黒色「×」印の緑ボタンをクリックして拡大、「-」印の緑ボタンをクリックして縮小、緑色の三角印をクリックして隣りの地図に切り替え


METAR-TAF: